KLVN

Airlake Airport

Minneapolis, Minnesota, USA
METAR KLVN 161535Z AUTO 31008KT 10SM OVC011 M02/M03 A3001 RMK AO2
Observed Flight Rules
Nov-16 @ 15:35 UTC (30 minutes ago) Marginal Visual Flight Rules
Wind Visibility Clouds
310° at 8 knots 10 miles
  • Overcast at 1,100' AGL
Temperatures Readings
Current -2°C / 28°F
Dewpoint -3°C / 27°F
Humidity 93%
Altimeter 30.01" Hg
Pressure 1016 hPa
Elevation 293
METAR KLVN 161535Z AUTO 31008KT 10SM OVC011 M02/M03 A3001 RMK AO2
Observed Flight Rules
Nov-16 @ 15:35 UTC
(30 minutes ago)
MVFR
Wind Visibility
310° at 8 knots 10 miles
Clouds
  • Overcast at 1,100' AGL
Temperature Dewpoint
-2°C / 28°F -3°C / 27°F
Humidity Altimeter Pressure
93% 30.01" Hg 1016 hPa